Terminal Aerodrome Forecast
Issued by NWS

Home | Current Version | Previous Version | Text Only | Print | Product List | Glossary Off
Versions: 1 2 3 4 5 6 7 8 9 10 11 12 13 14 15 16 17 18 19 20

000
FTUS43 KICT 180746 AAA
TAFRSL
TAF AMD
KRSL 180746Z 1808/1906 17015G20KT P6SM SCT250 WS020/20050KT
     FM181600 20026G36KT P6SM SCT250
     FM190200 17019G27KT P6SM SCT250
     FM190400 17018KT P6SM SCT250=

USA.gov is the U.S. government's official web portal to all federal, state and local government web resources and services.